Latest  Newer  Older  Last 2 hours animation  Current image  Latest image 
Rain/snow radar  Infrared sat images 
Real-time lightning map

All time is UTC (add 2 hours to UTC in wintertime, 3 hours to UTC in DST for Latvia local time)

2020/11/30 07:50 EVRA 300750Z 18004KT 2800 SN SCT003 BKN011 OVC035 M00/M01 Q1018 R18/590339 BECMG OVC003
2020/11/30 07:50 EVLA 300750Z AUTO VRB02KT 9999 BKN035/// OVC059/// 00/M00 Q1020
2020/11/30 07:50 EVVA 300750Z AUTO 15003KT 9999 BKN040 OVC060 01/01 Q1019
2020/11/30 07:50 EYKA 300750Z 26004KT 9000 BKN005 OVC012 00/M02 Q1020 R08/290095
2020/11/30 07:50 EYPA 300750Z 14003KT 110V190 9999 OVC047 00/M00 Q1020
2020/11/30 07:50 EYSA 300750Z 23005KT 4700 -SN BR OVC004 M01/M01 Q1019 R14L/29//95 R14R/29//95 YLO NOSIG
2020/11/30 07:50 EYVI 300750Z 29004KT 9999 OVC002 M01/M01 Q1019 R01/2///95 NOSIG
2020/11/30 07:50 EEKA 300750Z 00000KT 7000 -RASN BKN019 00/00 Q1019
2020/11/30 07:50 EEKE 300750Z 00000KT 9000 FEW008 BKN028 M01/M01 Q1018
2020/11/30 07:50 EEPU 300750Z 36003KT 320V020 2700 -SN BR BKN006 OVC018 M01/M01 Q1018
2020/11/30 07:50 EETN 300750Z VRB02KT 4300 -SN BR FEW004 SCT018 OVC043 M01/M01 Q1019 R08/490393 TEMPO 3000 -FZDZ
2020/11/30 07:50 EETU 300750Z 13006KT 100V160 5000 -SNRA OVC005 00/M00 Q1018
   RIGA AIRPORT     EVRA               56 55N  023 58E   10   X     T          6 LV
   LIEPAJA INTL     EVLA        26406  56 31N  021 06E    4   X                8 LV
   VENTPILS         EVVA               57 21N  021 33E    6   X                8 LV
   KAUNAS           EYKA               54 54N  023 55E   77   X     T          6 LT
   PALANGA INTL     EYPA               55 55N  021 03E   10   X                6 LT
   SIAULIAI INTL    EYSA               55 54N  023 24E  135   X     T          6 LT
   VILNIUS INTL     EYVI        26730  54 38N  025 17E  197   X     T          6 LT
   KARDLA           EEKA        26116  58 59N  022 50E    4   X                8 EE
   KURESSAARE       EEKE               58 14N  022 31E    4   X                8 EE
   PARNU            EEPU               58 25N  024 28E   14   X                8 EE
   TALLINN          EETN        26038  59 24N  024 49E   40   X     T          8 EE
   TARTU            EETU               58 19N  026 41E   67   X                8 EE

cloud coverage image from sat24.com and METAR data from weather.noaa.gov